EGPM/SCS METAR and TAF weather

Enter ICAO airport designator
Station Type Date Time Source
EGPM METAR 2019/10/19 08:20 UTC NOAA

EGPM 190820Z AUTO 03016KT 9999 NCD 09/07 Q1003


Station Type Date Time Source
EGPM Decoded METAR 2019/10/19 08:20 UTC NOAA

Scatsa / Shetland Island, United Kingdom (EGPM) 60-26N 001-18W
Oct 19, 2019 - 04:20 AM EDT / 2019.10.19 0820 UTC
Wind: from the NNE (030 degrees) at 18 MPH (16 KT):0
Visibility: greater than 7 mile(s):0
Temperature: 48 F (9 C)
Dew Point: 44 F (7 C)
Relative Humidity: 87%
Pressure (altimeter): 29.62 in. Hg (1003 hPa)
ob: EGPM 190820Z AUTO 03016KT 9999 NCD 09/07 Q1003
cycle: 8

Station Type Date Time Source
EGPM TAF 2013/04/29 03:39 UTC NOAA

TAF TAF EGPM 290337Z 2903/2915 22005KT 9999 SCT030 PROB30
TEMPO 2903/2906 7000 SHRAGS
BECMG 2906/2909 32015KT PROB40
TEMPO 2906/2915 6000 SHRA SHGS BKN012CB

Example: see airport list